This is the latest recevied weather packets stored in our database for station/object AI4Y. If no packets are shown the sender has not sent any weather packets the latest 10 day(s).
| Time | Temp. | Humidity | Pressure | Rain* | Wind** | Luminosity | Snow |
|---|---|---|---|---|---|---|---|
| 1777704617 | 11.11° C | 66% | 1013.3 hPa | 0 mm | - | 0 W/m² | - |
| 1777696218 | 13.33° C | 65% | 1013.3 hPa | 0 mm | - | 0 W/m² | - |
| 1777695618 | 13.89° C | 64% | 1013.3 hPa | 0 mm | - | 0 W/m² | - |
| 1777693816 | 14.44° C | 63% | 1013.2 hPa | 0 mm | - | 0 W/m² | - |
| 1777689017 | 12.78° C | 76% | 1012.3 hPa | 0 mm | - | 0 W/m² | - |
| 1777687857 | 13.33° C | 74% | 1011.8 hPa | 0 mm | - | 0 W/m² | - |
| 1777686637 | 13.89° C | 69% | 1011.7 hPa | 0 mm | - | 0 W/m² | - |
| 1777685418 | 14.44° C | 65% | 1011.7 hPa | 0 mm | - | 0 W/m² | - |
| 1777684821 | 14.44° C | 64% | 1011.6 hPa | 0 mm | - | 0 W/m² | - |
| 1777684218 | 15° C | 63% | 1011.6 hPa | 0 mm | - | 0 W/m² | - |
| 1777680016 | 16.11° C | 57% | 1010.4 hPa | 0 mm | - | 9 W/m² | - |
| 1777678847 | 17.22° C | 54% | 1010.4 hPa | 0 mm | - | 41 W/m² | - |
| 1777677617 | 18.33° C | 52% | 1010.5 hPa | 0 mm | - | 92 W/m² | - |
| 1777675818 | 19.44° C | 50% | 1010.4 hPa | 0 mm | - | 175 W/m² | - |
| 1777671018 | 21.11° C | 43% | 1010.7 hPa | 0 mm | - | 542 W/m² | - |
| 1777667416 | 21.67° C | 42% | 1011.3 hPa | 0 mm | - | 737 W/m² | - |
| 1777666217 | 21.67° C | 43% | 1011.6 hPa | 0 mm | - | 788 W/m² | - |
| 1777663237 | 20° C | 47% | 1012.5 hPa | 0 mm | - | 810 W/m² | - |
| 1777659618 | 19.44° C | 44% | 1013.5 hPa | 0 mm | - | 984 W/m² | - |
| 1777659038 | 19.44° C | 45% | 1013.8 hPa | 0 mm | - | 985 W/m² | - |
| 1777657236 | 17.78° C | 47% | 1014 hPa | 0 mm | - | 866 W/m² | - |
| 1777656016 | 18.33° C | 48% | 1014.3 hPa | 0 mm | - | 947 W/m² | - |
| 1777653017 | 17.22° C | 51% | 1015.3 hPa | 0 mm | - | 642 W/m² | - |
| 1777646438 | 15° C | 55% | 1016 hPa | 0 mm | - | 499 W/m² | - |
| 1777644619 | 14.44° C | 55% | 1016.1 hPa | 0 mm | - | 574 W/m² | - |
* Rain latest hour (hover to see other rain measurements)
** Current wind speed in m/s (hover to see current wind gust speed)